sensor_id;sensor_type;location;lat;lon;timestamp;P1;durP1;ratioP1;P2;durP2;ratioP2
140;SDS011;65;48.778;9.160;2024-03-17T00:00:05;5.93;;;2.92;;
140;SDS011;65;48.778;9.160;2024-03-17T00:02:54;6.95;;;2.97;;
140;SDS011;65;48.778;9.160;2024-03-17T00:05:40;5.50;;;2.67;;
140;SDS011;65;48.778;9.160;2024-03-17T00:08:28;5.75;;;2.63;;
140;SDS011;65;48.778;9.160;2024-03-17T00:14:52;7.28;;;2.63;;
140;SDS011;65;48.778;9.160;2024-03-17T00:17:41;5.63;;;2.35;;
140;SDS011;65;48.778;9.160;2024-03-17T00:20:27;5.45;;;2.53;;
140;SDS011;65;48.778;9.160;2024-03-17T00:23:17;4.22;;;2.03;;
140;SDS011;65;48.778;9.160;2024-03-17T00:26:29;5.28;;;2.60;;
140;SDS011;65;48.778;9.160;2024-03-17T00:29:24;5.90;;;2.58;;
140;SDS011;65;48.778;9.160;2024-03-17T00:32:10;8.50;;;2.90;;
140;SDS011;65;48.778;9.160;2024-03-17T00:35:17;6.15;;;3.22;;
140;SDS011;65;48.778;9.160;2024-03-17T00:38:06;7.75;;;3.50;;
140;SDS011;65;48.778;9.160;2024-03-17T00:40:55;7.07;;;2.80;;
140;SDS011;65;48.778;9.160;2024-03-17T00:43:41;6.43;;;2.88;;
140;SDS011;65;48.778;9.160;2024-03-17T00:46:27;6.78;;;3.03;;
140;SDS011;65;48.778;9.160;2024-03-17T00:49:13;5.45;;;2.30;;
140;SDS011;65;48.778;9.160;2024-03-17T00:51:59;4.25;;;2.45;;
140;SDS011;65;48.778;9.160;2024-03-17T00:54:46;6.05;;;2.58;;
140;SDS011;65;48.778;9.160;2024-03-17T00:57:34;6.38;;;3.72;;
140;SDS011;65;48.778;9.160;2024-03-17T01:00:20;7.15;;;2.55;;
140;SDS011;65;48.778;9.160;2024-03-17T01:03:06;5.20;;;2.80;;
140;SDS011;65;48.778;9.160;2024-03-17T01:05:52;4.68;;;2.55;;
140;SDS011;65;48.778;9.160;2024-03-17T01:08:38;4.03;;;2.03;;
140;SDS011;65;48.778;9.160;2024-03-17T01:11:23;4.97;;;2.50;;
140;SDS011;65;48.778;9.160;2024-03-17T01:14:10;4.85;;;2.40;;
140;SDS011;65;48.778;9.160;2024-03-17T01:16:56;3.25;;;1.85;;
140;SDS011;65;48.778;9.160;2024-03-17T01:19:42;4.38;;;1.80;;
140;SDS011;65;48.778;9.160;2024-03-17T01:22:28;4.40;;;2.42;;
140;SDS011;65;48.778;9.160;2024-03-17T01:25:14;4.90;;;2.50;;
140;SDS011;65;48.778;9.160;2024-03-17T01:28:01;4.25;;;2.03;;
140;SDS011;65;48.778;9.160;2024-03-17T01:30:47;4.90;;;2.50;;
140;SDS011;65;48.778;9.160;2024-03-17T01:33:33;7.07;;;2.50;;
140;SDS011;65;48.778;9.160;2024-03-17T01:36:19;5.15;;;2.70;;
140;SDS011;65;48.778;9.160;2024-03-17T01:39:05;3.50;;;1.98;;
140;SDS011;65;48.778;9.160;2024-03-17T01:41:51;5.75;;;2.47;;
140;SDS011;65;48.778;9.160;2024-03-17T01:44:37;4.15;;;2.15;;
140;SDS011;65;48.778;9.160;2024-03-17T01:47:23;3.75;;;2.00;;
140;SDS011;65;48.778;9.160;2024-03-17T01:50:10;7.18;;;2.42;;
140;SDS011;65;48.778;9.160;2024-03-17T01:52:59;5.00;;;2.53;;
140;SDS011;65;48.778;9.160;2024-03-17T01:55:47;4.78;;;2.35;;
140;SDS011;65;48.778;9.160;2024-03-17T01:58:33;4.68;;;2.38;;
140;SDS011;65;48.778;9.160;2024-03-17T02:01:19;4.28;;;1.98;;
140;SDS011;65;48.778;9.160;2024-03-17T02:04:05;5.38;;;2.72;;
140;SDS011;65;48.778;9.160;2024-03-17T02:06:51;6.65;;;3.28;;
140;SDS011;65;48.778;9.160;2024-03-17T02:09:37;12.50;;;3.75;;
140;SDS011;65;48.778;9.160;2024-03-17T02:12:23;7.35;;;3.70;;
140;SDS011;65;48.778;9.160;2024-03-17T02:15:10;8.50;;;3.42;;
140;SDS011;65;48.778;9.160;2024-03-17T02:17:56;7.80;;;3.00;;
140;SDS011;65;48.778;9.160;2024-03-17T02:20:42;6.35;;;2.70;;
140;SDS011;65;48.778;9.160;2024-03-17T02:23:46;7.20;;;3.10;;
140;SDS011;65;48.778;9.160;2024-03-17T02:26:32;5.13;;;2.70;;
140;SDS011;65;48.778;9.160;2024-03-17T02:29:18;6.00;;;2.95;;
140;SDS011;65;48.778;9.160;2024-03-17T02:32:04;6.70;;;3.25;;
140;SDS011;65;48.778;9.160;2024-03-17T02:34:52;6.30;;;3.15;;
140;SDS011;65;48.778;9.160;2024-03-17T02:37:38;5.55;;;3.08;;
140;SDS011;65;48.778;9.160;2024-03-17T02:40:23;6.68;;;3.15;;
140;SDS011;65;48.778;9.160;2024-03-17T02:43:09;6.75;;;2.80;;
140;SDS011;65;48.778;9.160;2024-03-17T02:45:55;5.25;;;2.65;;
140;SDS011;65;48.778;9.160;2024-03-17T02:48:41;5.55;;;3.00;;
140;SDS011;65;48.778;9.160;2024-03-17T02:51:32;6.60;;;2.88;;
140;SDS011;65;48.778;9.160;2024-03-17T02:54:17;5.45;;;2.90;;
140;SDS011;65;48.778;9.160;2024-03-17T02:57:03;5.38;;;2.47;;
140;SDS011;65;48.778;9.160;2024-03-17T02:59:50;5.78;;;2.70;;
140;SDS011;65;48.778;9.160;2024-03-17T03:02:37;8.02;;;3.58;;
140;SDS011;65;48.778;9.160;2024-03-17T03:05:22;6.55;;;3.67;;
140;SDS011;65;48.778;9.160;2024-03-17T03:08:08;7.05;;;3.30;;
140;SDS011;65;48.778;9.160;2024-03-17T03:10:54;9.48;;;3.67;;
140;SDS011;65;48.778;9.160;2024-03-17T03:13:43;8.35;;;3.78;;
140;SDS011;65;48.778;9.160;2024-03-17T03:16:29;7.68;;;3.25;;
140;SDS011;65;48.778;9.160;2024-03-17T03:19:15;7.82;;;3.47;;
140;SDS011;65;48.778;9.160;2024-03-17T03:22:01;8.02;;;4.20;;
140;SDS011;65;48.778;9.160;2024-03-17T03:24:47;7.97;;;3.88;;
140;SDS011;65;48.778;9.160;2024-03-17T03:27:33;6.53;;;3.15;;
140;SDS011;65;48.778;9.160;2024-03-17T03:30:19;9.45;;;3.35;;
140;SDS011;65;48.778;9.160;2024-03-17T03:33:06;8.80;;;4.15;;
140;SDS011;65;48.778;9.160;2024-03-17T03:35:52;9.27;;;4.20;;
140;SDS011;65;48.778;9.160;2024-03-17T03:38:38;7.25;;;3.78;;
140;SDS011;65;48.778;9.160;2024-03-17T03:41:23;9.25;;;4.20;;
140;SDS011;65;48.778;9.160;2024-03-17T03:44:10;6.82;;;3.60;;
140;SDS011;65;48.778;9.160;2024-03-17T03:46:55;8.55;;;5.10;;
140;SDS011;65;48.778;9.160;2024-03-17T03:49:43;9.10;;;3.85;;
140;SDS011;65;48.778;9.160;2024-03-17T03:52:30;10.57;;;4.45;;
140;SDS011;65;48.778;9.160;2024-03-17T03:55:16;10.52;;;4.90;;
140;SDS011;65;48.778;9.160;2024-03-17T03:58:02;10.80;;;4.47;;
140;SDS011;65;48.778;9.160;2024-03-17T04:00:49;10.98;;;4.22;;
140;SDS011;65;48.778;9.160;2024-03-17T04:03:35;11.30;;;4.40;;
140;SDS011;65;48.778;9.160;2024-03-17T04:06:22;8.60;;;4.47;;
140;SDS011;65;48.778;9.160;2024-03-17T04:09:08;9.77;;;4.45;;
140;SDS011;65;48.778;9.160;2024-03-17T04:11:54;10.00;;;4.88;;
140;SDS011;65;48.778;9.160;2024-03-17T04:14:40;10.43;;;4.43;;
140;SDS011;65;48.778;9.160;2024-03-17T04:17:26;8.55;;;4.18;;
140;SDS011;65;48.778;9.160;2024-03-17T04:20:12;10.15;;;4.88;;
140;SDS011;65;48.778;9.160;2024-03-17T04:22:59;10.57;;;4.00;;
140;SDS011;65;48.778;9.160;2024-03-17T04:25:45;8.63;;;4.60;;
140;SDS011;65;48.778;9.160;2024-03-17T04:28:30;9.23;;;4.43;;
140;SDS011;65;48.778;9.160;2024-03-17T04:31:16;10.23;;;4.88;;
140;SDS011;65;48.778;9.160;2024-03-17T04:34:03;7.75;;;4.03;;
140;SDS011;65;48.778;9.160;2024-03-17T04:36:48;9.82;;;4.25;;
140;SDS011;65;48.778;9.160;2024-03-17T04:39:34;9.27;;;4.25;;
140;SDS011;65;48.778;9.160;2024-03-17T04:42:23;8.57;;;4.30;;
140;SDS011;65;48.778;9.160;2024-03-17T04:45:09;9.07;;;4.32;;
140;SDS011;65;48.778;9.160;2024-03-17T04:47:55;10.55;;;4.65;;
140;SDS011;65;48.778;9.160;2024-03-17T04:50:40;8.65;;;4.70;;
140;SDS011;65;48.778;9.160;2024-03-17T04:53:26;9.25;;;4.60;;
140;SDS011;65;48.778;9.160;2024-03-17T04:56:13;10.32;;;4.28;;
140;SDS011;65;48.778;9.160;2024-03-17T04:58:58;13.88;;;4.60;;
140;SDS011;65;48.778;9.160;2024-03-17T05:01:44;8.77;;;4.22;;
140;SDS011;65;48.778;9.160;2024-03-17T05:04:30;8.80;;;4.25;;
140;SDS011;65;48.778;9.160;2024-03-17T05:07:16;9.15;;;4.00;;
140;SDS011;65;48.778;9.160;2024-03-17T05:10:02;8.02;;;4.22;;
140;SDS011;65;48.778;9.160;2024-03-17T05:12:48;6.88;;;3.15;;
140;SDS011;65;48.778;9.160;2024-03-17T05:15:36;6.75;;;3.22;;
140;SDS011;65;48.778;9.160;2024-03-17T05:18:22;8.30;;;4.25;;
140;SDS011;65;48.778;9.160;2024-03-17T05:21:11;7.30;;;3.67;;
140;SDS011;65;48.778;9.160;2024-03-17T05:23:57;7.57;;;3.40;;
140;SDS011;65;48.778;9.160;2024-03-17T05:26:43;6.32;;;3.40;;
140;SDS011;65;48.778;9.160;2024-03-17T05:29:29;6.65;;;3.72;;
140;SDS011;65;48.778;9.160;2024-03-17T05:32:14;8.75;;;4.35;;
140;SDS011;65;48.778;9.160;2024-03-17T05:35:00;11.98;;;4.80;;
140;SDS011;65;48.778;9.160;2024-03-17T05:37:46;9.60;;;4.50;;
140;SDS011;65;48.778;9.160;2024-03-17T05:40:34;6.55;;;3.78;;
140;SDS011;65;48.778;9.160;2024-03-17T05:43:20;9.35;;;4.25;;
140;SDS011;65;48.778;9.160;2024-03-17T05:46:09;8.50;;;4.32;;
140;SDS011;65;48.778;9.160;2024-03-17T05:48:56;7.72;;;4.28;;
140;SDS011;65;48.778;9.160;2024-03-17T05:51:42;8.77;;;4.00;;
140;SDS011;65;48.778;9.160;2024-03-17T05:54:28;7.90;;;3.85;;
140;SDS011;65;48.778;9.160;2024-03-17T05:57:14;6.65;;;3.42;;
140;SDS011;65;48.778;9.160;2024-03-17T06:00:01;8.23;;;3.55;;
140;SDS011;65;48.778;9.160;2024-03-17T06:02:47;8.30;;;4.10;;
140;SDS011;65;48.778;9.160;2024-03-17T06:05:37;8.73;;;4.10;;
140;SDS011;65;48.778;9.160;2024-03-17T06:08:28;8.95;;;4.38;;
140;SDS011;65;48.778;9.160;2024-03-17T06:11:13;8.27;;;3.80;;
140;SDS011;65;48.778;9.160;2024-03-17T06:13:59;8.27;;;4.03;;
140;SDS011;65;48.778;9.160;2024-03-17T06:16:47;8.05;;;4.22;;
140;SDS011;65;48.778;9.160;2024-03-17T06:19:33;7.75;;;3.90;;
140;SDS011;65;48.778;9.160;2024-03-17T06:22:18;8.63;;;4.53;;
140;SDS011;65;48.778;9.160;2024-03-17T06:25:05;8.80;;;4.00;;
140;SDS011;65;48.778;9.160;2024-03-17T06:27:54;11.27;;;4.63;;
140;SDS011;65;48.778;9.160;2024-03-17T06:33:34;13.23;;;4.85;;
140;SDS011;65;48.778;9.160;2024-03-17T06:36:20;8.70;;;4.50;;
140;SDS011;65;48.778;9.160;2024-03-17T06:39:07;8.93;;;4.40;;
140;SDS011;65;48.778;9.160;2024-03-17T06:41:52;10.55;;;4.60;;
140;SDS011;65;48.778;9.160;2024-03-17T06:44:38;7.68;;;4.20;;
140;SDS011;65;48.778;9.160;2024-03-17T06:47:25;7.93;;;4.53;;
140;SDS011;65;48.778;9.160;2024-03-17T06:50:10;7.22;;;3.95;;
140;SDS011;65;48.778;9.160;2024-03-17T06:52:57;9.07;;;4.40;;
140;SDS011;65;48.778;9.160;2024-03-17T06:55:43;8.82;;;4.75;;
140;SDS011;65;48.778;9.160;2024-03-17T06:58:28;7.50;;;4.03;;
140;SDS011;65;48.778;9.160;2024-03-17T07:01:15;9.20;;;4.68;;
140;SDS011;65;48.778;9.160;2024-03-17T07:04:01;8.15;;;4.40;;
140;SDS011;65;48.778;9.160;2024-03-17T07:06:47;8.48;;;4.30;;
140;SDS011;65;48.778;9.160;2024-03-17T07:09:32;8.98;;;4.32;;
140;SDS011;65;48.778;9.160;2024-03-17T07:12:18;9.73;;;5.35;;
140;SDS011;65;48.778;9.160;2024-03-17T07:15:04;13.50;;;5.28;;
140;SDS011;65;48.778;9.160;2024-03-17T07:17:51;7.07;;;4.38;;
140;SDS011;65;48.778;9.160;2024-03-17T07:20:36;8.40;;;4.88;;
140;SDS011;65;48.778;9.160;2024-03-17T07:23:24;8.20;;;4.63;;
140;SDS011;65;48.778;9.160;2024-03-17T07:26:10;8.23;;;4.38;;
140;SDS011;65;48.778;9.160;2024-03-17T07:28:56;7.82;;;4.38;;
140;SDS011;65;48.778;9.160;2024-03-17T07:31:42;8.23;;;4.47;;
140;SDS011;65;48.778;9.160;2024-03-17T07:34:30;8.18;;;4.60;;
140;SDS011;65;48.778;9.160;2024-03-17T07:37:20;15.13;;;4.75;;
140;SDS011;65;48.778;9.160;2024-03-17T07:40:06;8.32;;;4.55;;
140;SDS011;65;48.778;9.160;2024-03-17T07:42:52;13.15;;;5.30;;
140;SDS011;65;48.778;9.160;2024-03-17T07:45:38;10.40;;;4.60;;
140;SDS011;65;48.778;9.160;2024-03-17T07:48:24;9.10;;;5.45;;
140;SDS011;65;48.778;9.160;2024-03-17T07:51:11;10.07;;;5.30;;
140;SDS011;65;48.778;9.160;2024-03-17T07:53:58;9.23;;;5.28;;
140;SDS011;65;48.778;9.160;2024-03-17T07:56:44;8.35;;;5.20;;
140;SDS011;65;48.778;9.160;2024-03-17T07:59:31;9.10;;;5.18;;
140;SDS011;65;48.778;9.160;2024-03-17T08:02:17;8.25;;;4.55;;
140;SDS011;65;48.778;9.160;2024-03-17T08:05:03;9.30;;;5.28;;
140;SDS011;65;48.778;9.160;2024-03-17T08:07:50;8.48;;;5.05;;
140;SDS011;65;48.778;9.160;2024-03-17T08:10:39;8.30;;;5.05;;
140;SDS011;65;48.778;9.160;2024-03-17T08:13:25;13.63;;;5.43;;
140;SDS011;65;48.778;9.160;2024-03-17T08:16:11;8.80;;;5.40;;
140;SDS011;65;48.778;9.160;2024-03-17T08:18:57;9.10;;;5.13;;
140;SDS011;65;48.778;9.160;2024-03-17T08:21:43;16.35;;;5.63;;
140;SDS011;65;48.778;9.160;2024-03-17T08:24:30;8.65;;;5.55;;
140;SDS011;65;48.778;9.160;2024-03-17T08:27:16;9.43;;;5.43;;
140;SDS011;65;48.778;9.160;2024-03-17T08:30:02;8.27;;;5.07;;
140;SDS011;65;48.778;9.160;2024-03-17T08:32:48;8.60;;;5.03;;
140;SDS011;65;48.778;9.160;2024-03-17T08:35:34;10.02;;;5.90;;
140;SDS011;65;48.778;9.160;2024-03-17T08:38:22;9.15;;;5.75;;
140;SDS011;65;48.778;9.160;2024-03-17T08:41:13;9.48;;;6.15;;
140;SDS011;65;48.778;9.160;2024-03-17T08:43:59;9.90;;;6.00;;
140;SDS011;65;48.778;9.160;2024-03-17T08:46:45;12.25;;;5.78;;
140;SDS011;65;48.778;9.160;2024-03-17T08:49:31;9.65;;;5.68;;
140;SDS011;65;48.778;9.160;2024-03-17T08:52:17;8.25;;;5.38;;
140;SDS011;65;48.778;9.160;2024-03-17T08:55:03;10.38;;;5.85;;
140;SDS011;65;48.778;9.160;2024-03-17T08:57:55;9.18;;;5.47;;
140;SDS011;65;48.778;9.160;2024-03-17T09:00:41;8.77;;;5.30;;
140;SDS011;65;48.778;9.160;2024-03-17T09:03:27;9.35;;;5.07;;
140;SDS011;65;48.778;9.160;2024-03-17T09:06:18;8.20;;;5.13;;
140;SDS011;65;48.778;9.160;2024-03-17T09:09:07;8.43;;;4.75;;
140;SDS011;65;48.778;9.160;2024-03-17T09:11:53;11.10;;;5.53;;
140;SDS011;65;48.778;9.160;2024-03-17T09:14:39;7.30;;;4.32;;
140;SDS011;65;48.778;9.160;2024-03-17T09:17:26;8.80;;;5.03;;
140;SDS011;65;48.778;9.160;2024-03-17T09:20:17;8.43;;;4.68;;
140;SDS011;65;48.778;9.160;2024-03-17T09:23:06;8.63;;;4.63;;
140;SDS011;65;48.778;9.160;2024-03-17T09:25:56;9.27;;;4.38;;
140;SDS011;65;48.778;9.160;2024-03-17T09:28:43;7.18;;;4.40;;
140;SDS011;65;48.778;9.160;2024-03-17T09:31:29;7.80;;;4.28;;
140;SDS011;65;48.778;9.160;2024-03-17T09:34:16;7.00;;;4.03;;
140;SDS011;65;48.778;9.160;2024-03-17T09:37:01;7.80;;;3.90;;
140;SDS011;65;48.778;9.160;2024-03-17T09:39:47;6.95;;;4.25;;
140;SDS011;65;48.778;9.160;2024-03-17T09:42:33;5.85;;;3.65;;
140;SDS011;65;48.778;9.160;2024-03-17T09:45:19;5.38;;;3.30;;
140;SDS011;65;48.778;9.160;2024-03-17T09:48:07;5.05;;;2.90;;
140;SDS011;65;48.778;9.160;2024-03-17T09:50:59;6.50;;;3.67;;
140;SDS011;65;48.778;9.160;2024-03-17T09:53:47;5.53;;;3.20;;
140;SDS011;65;48.778;9.160;2024-03-17T09:56:33;6.25;;;3.25;;
140;SDS011;65;48.778;9.160;2024-03-17T09:59:19;6.30;;;3.25;;
140;SDS011;65;48.778;9.160;2024-03-17T10:02:07;8.60;;;3.35;;
140;SDS011;65;48.778;9.160;2024-03-17T10:05:03;4.45;;;2.97;;
140;SDS011;65;48.778;9.160;2024-03-17T10:07:50;6.43;;;3.33;;
140;SDS011;65;48.778;9.160;2024-03-17T10:10:39;5.63;;;2.88;;
140;SDS011;65;48.778;9.160;2024-03-17T10:13:25;5.10;;;2.67;;
140;SDS011;65;48.778;9.160;2024-03-17T10:16:29;4.35;;;2.65;;
140;SDS011;65;48.778;9.160;2024-03-17T10:19:23;4.90;;;2.40;;
140;SDS011;65;48.778;9.160;2024-03-17T10:22:11;3.90;;;2.40;;
140;SDS011;65;48.778;9.160;2024-03-17T10:25:01;5.38;;;2.83;;
140;SDS011;65;48.778;9.160;2024-03-17T10:31:10;5.55;;;2.42;;
140;SDS011;65;48.778;9.160;2024-03-17T10:34:02;4.05;;;2.45;;
140;SDS011;65;48.778;9.160;2024-03-17T10:36:48;4.60;;;2.60;;
140;SDS011;65;48.778;9.160;2024-03-17T10:39:34;7.38;;;4.32;;
140;SDS011;65;48.778;9.160;2024-03-17T10:42:29;5.22;;;2.80;;
140;SDS011;65;48.778;9.160;2024-03-17T10:45:21;4.78;;;2.58;;
140;SDS011;65;48.778;9.160;2024-03-17T10:48:08;4.55;;;2.47;;
140;SDS011;65;48.778;9.160;2024-03-17T10:50:54;3.38;;;1.85;;
140;SDS011;65;48.778;9.160;2024-03-17T10:53:45;4.32;;;2.30;;
140;SDS011;65;48.778;9.160;2024-03-17T10:56:34;5.18;;;2.20;;
140;SDS011;65;48.778;9.160;2024-03-17T10:59:19;6.60;;;2.00;;
140;SDS011;65;48.778;9.160;2024-03-17T11:02:21;5.47;;;2.17;;
140;SDS011;65;48.778;9.160;2024-03-17T11:05:11;4.65;;;2.65;;
140;SDS011;65;48.778;9.160;2024-03-17T11:08:01;4.68;;;2.45;;
140;SDS011;65;48.778;9.160;2024-03-17T11:10:50;4.70;;;2.60;;
140;SDS011;65;48.778;9.160;2024-03-17T11:13:41;5.70;;;2.80;;
140;SDS011;65;48.778;9.160;2024-03-17T11:16:29;4.35;;;2.35;;
140;SDS011;65;48.778;9.160;2024-03-17T11:19:16;4.18;;;2.22;;
140;SDS011;65;48.778;9.160;2024-03-17T11:28:11;2.80;;;1.95;;
140;SDS011;65;48.778;9.160;2024-03-17T11:31:36;5.68;;;2.53;;
140;SDS011;65;48.778;9.160;2024-03-17T11:37:51;3.92;;;2.17;;
140;SDS011;65;48.778;9.160;2024-03-17T11:40:38;3.65;;;2.47;;
140;SDS011;65;48.778;9.160;2024-03-17T11:43:24;4.40;;;2.25;;
140;SDS011;65;48.778;9.160;2024-03-17T11:46:10;5.15;;;2.90;;
140;SDS011;65;48.778;9.160;2024-03-17T11:48:56;5.85;;;2.17;;
140;SDS011;65;48.778;9.160;2024-03-17T11:51:42;4.82;;;2.63;;
140;SDS011;65;48.778;9.160;2024-03-17T11:54:29;6.22;;;3.40;;
140;SDS011;65;48.778;9.160;2024-03-17T11:57:22;4.20;;;2.45;;
140;SDS011;65;48.778;9.160;2024-03-17T12:00:19;4.93;;;2.63;;
140;SDS011;65;48.778;9.160;2024-03-17T12:03:09;5.00;;;3.03;;
140;SDS011;65;48.778;9.160;2024-03-17T12:05:56;4.43;;;2.70;;
140;SDS011;65;48.778;9.160;2024-03-17T12:08:42;4.60;;;2.60;;
140;SDS011;65;48.778;9.160;2024-03-17T12:11:30;5.00;;;2.70;;
140;SDS011;65;48.778;9.160;2024-03-17T12:14:16;5.47;;;2.53;;
140;SDS011;65;48.778;9.160;2024-03-17T12:17:05;4.03;;;2.50;;
140;SDS011;65;48.778;9.160;2024-03-17T12:19:54;4.55;;;2.40;;
140;SDS011;65;48.778;9.160;2024-03-17T12:22:43;5.28;;;2.88;;
140;SDS011;65;48.778;9.160;2024-03-17T12:25:29;4.82;;;2.17;;
140;SDS011;65;48.778;9.160;2024-03-17T12:28:15;4.32;;;2.70;;
140;SDS011;65;48.778;9.160;2024-03-17T12:31:02;4.70;;;2.47;;
140;SDS011;65;48.778;9.160;2024-03-17T12:33:48;6.00;;;2.65;;
140;SDS011;65;48.778;9.160;2024-03-17T12:36:34;4.55;;;2.70;;
140;SDS011;65;48.778;9.160;2024-03-17T12:42:22;4.95;;;2.60;;
140;SDS011;65;48.778;9.160;2024-03-17T12:45:09;7.93;;;2.55;;
140;SDS011;65;48.778;9.160;2024-03-17T12:47:55;8.88;;;2.95;;
140;SDS011;65;48.778;9.160;2024-03-17T12:50:45;5.50;;;2.72;;
140;SDS011;65;48.778;9.160;2024-03-17T12:53:31;5.43;;;2.85;;
140;SDS011;65;48.778;9.160;2024-03-17T12:56:22;5.10;;;2.67;;
140;SDS011;65;48.778;9.160;2024-03-17T12:59:36;5.65;;;3.00;;
140;SDS011;65;48.778;9.160;2024-03-17T13:02:44;3.97;;;2.22;;
140;SDS011;65;48.778;9.160;2024-03-17T13:05:31;5.75;;;2.97;;
140;SDS011;65;48.778;9.160;2024-03-17T13:08:17;6.82;;;2.90;;
140;SDS011;65;48.778;9.160;2024-03-17T13:11:03;4.45;;;2.50;;
140;SDS011;65;48.778;9.160;2024-03-17T13:13:49;7.10;;;2.55;;
140;SDS011;65;48.778;9.160;2024-03-17T13:16:38;4.32;;;2.75;;
140;SDS011;65;48.778;9.160;2024-03-17T13:19:24;9.05;;;2.65;;
140;SDS011;65;48.778;9.160;2024-03-17T13:22:09;5.65;;;2.88;;
140;SDS011;65;48.778;9.160;2024-03-17T13:24:58;6.32;;;2.63;;
140;SDS011;65;48.778;9.160;2024-03-17T13:27:44;5.85;;;2.40;;
140;SDS011;65;48.778;9.160;2024-03-17T13:30:30;5.40;;;2.72;;
140;SDS011;65;48.778;9.160;2024-03-17T13:33:19;4.63;;;2.33;;
140;SDS011;65;48.778;9.160;2024-03-17T13:36:04;4.85;;;2.67;;
140;SDS011;65;48.778;9.160;2024-03-17T13:38:52;3.42;;;2.20;;
140;SDS011;65;48.778;9.160;2024-03-17T13:41:38;3.85;;;2.33;;
140;SDS011;65;48.778;9.160;2024-03-17T13:44:24;3.83;;;2.25;;
140;SDS011;65;48.778;9.160;2024-03-17T13:47:10;5.50;;;2.58;;
140;SDS011;65;48.778;9.160;2024-03-17T13:49:55;5.55;;;2.70;;
140;SDS011;65;48.778;9.160;2024-03-17T13:52:42;3.13;;;2.10;;
140;SDS011;65;48.778;9.160;2024-03-17T13:55:28;5.50;;;2.38;;
140;SDS011;65;48.778;9.160;2024-03-17T13:58:14;2.90;;;2.03;;
140;SDS011;65;48.778;9.160;2024-03-17T14:01:00;6.28;;;2.28;;
140;SDS011;65;48.778;9.160;2024-03-17T14:03:46;4.43;;;2.47;;
140;SDS011;65;48.778;9.160;2024-03-17T14:06:32;4.32;;;2.28;;
140;SDS011;65;48.778;9.160;2024-03-17T14:09:18;3.55;;;2.15;;
140;SDS011;65;48.778;9.160;2024-03-17T14:12:04;4.18;;;1.90;;
140;SDS011;65;48.778;9.160;2024-03-17T14:14:50;4.32;;;2.15;;
140;SDS011;65;48.778;9.160;2024-03-17T14:17:45;3.75;;;1.90;;
140;SDS011;65;48.778;9.160;2024-03-17T14:20:34;2.65;;;1.80;;
140;SDS011;65;48.778;9.160;2024-03-17T14:23:19;3.00;;;2.00;;
140;SDS011;65;48.778;9.160;2024-03-17T14:26:06;4.63;;;1.80;;
140;SDS011;65;48.778;9.160;2024-03-17T14:28:52;3.65;;;1.80;;
140;SDS011;65;48.778;9.160;2024-03-17T14:31:40;3.67;;;1.80;;
140;SDS011;65;48.778;9.160;2024-03-17T14:34:29;5.70;;;1.58;;
140;SDS011;65;48.778;9.160;2024-03-17T14:37:20;3.50;;;1.98;;
140;SDS011;65;48.778;9.160;2024-03-17T14:40:06;3.80;;;2.15;;
140;SDS011;65;48.778;9.160;2024-03-17T14:42:59;3.80;;;2.08;;
140;SDS011;65;48.778;9.160;2024-03-17T14:45:48;4.13;;;2.10;;
140;SDS011;65;48.778;9.160;2024-03-17T14:48:34;4.90;;;2.33;;
140;SDS011;65;48.778;9.160;2024-03-17T14:51:20;4.85;;;2.00;;
140;SDS011;65;48.778;9.160;2024-03-17T14:54:06;3.03;;;1.80;;
140;SDS011;65;48.778;9.160;2024-03-17T14:56:53;3.75;;;2.03;;
140;SDS011;65;48.778;9.160;2024-03-17T14:59:39;4.40;;;2.40;;
140;SDS011;65;48.778;9.160;2024-03-17T15:02:25;3.50;;;2.00;;
140;SDS011;65;48.778;9.160;2024-03-17T15:05:11;2.92;;;1.92;;
140;SDS011;65;48.778;9.160;2024-03-17T15:07:57;2.42;;;1.75;;
140;SDS011;65;48.778;9.160;2024-03-17T15:10:43;4.15;;;2.35;;
140;SDS011;65;48.778;9.160;2024-03-17T15:13:30;3.97;;;2.20;;
140;SDS011;65;48.778;9.160;2024-03-17T15:16:15;4.82;;;1.85;;
140;SDS011;65;48.778;9.160;2024-03-17T15:19:01;4.30;;;1.98;;
140;SDS011;65;48.778;9.160;2024-03-17T15:21:48;4.97;;;2.00;;
140;SDS011;65;48.778;9.160;2024-03-17T15:24:34;3.70;;;1.98;;
140;SDS011;65;48.778;9.160;2024-03-17T15:27:20;4.22;;;2.30;;
140;SDS011;65;48.778;9.160;2024-03-17T15:30:06;3.80;;;1.98;;
140;SDS011;65;48.778;9.160;2024-03-17T15:32:52;4.72;;;1.80;;
140;SDS011;65;48.778;9.160;2024-03-17T15:35:40;2.75;;;1.52;;
140;SDS011;65;48.778;9.160;2024-03-17T15:38:28;7.18;;;2.70;;
140;SDS011;65;48.778;9.160;2024-03-17T15:41:14;3.50;;;1.92;;
140;SDS011;65;48.778;9.160;2024-03-17T15:44:01;2.83;;;1.80;;
140;SDS011;65;48.778;9.160;2024-03-17T15:46:47;3.95;;;1.83;;
140;SDS011;65;48.778;9.160;2024-03-17T15:49:34;2.65;;;1.85;;
140;SDS011;65;48.778;9.160;2024-03-17T15:52:19;3.60;;;1.73;;
140;SDS011;65;48.778;9.160;2024-03-17T15:55:05;1.98;;;1.67;;
140;SDS011;65;48.778;9.160;2024-03-17T15:57:51;2.88;;;1.80;;
140;SDS011;65;48.778;9.160;2024-03-17T16:00:37;3.63;;;1.83;;
140;SDS011;65;48.778;9.160;2024-03-17T16:03:28;4.57;;;2.20;;
140;SDS011;65;48.778;9.160;2024-03-17T16:06:16;3.90;;;2.00;;
140;SDS011;65;48.778;9.160;2024-03-17T16:09:03;3.95;;;2.17;;
140;SDS011;65;48.778;9.160;2024-03-17T16:11:49;3.50;;;1.85;;
140;SDS011;65;48.778;9.160;2024-03-17T16:14:35;3.55;;;2.20;;
140;SDS011;65;48.778;9.160;2024-03-17T16:17:24;4.13;;;2.28;;
140;SDS011;65;48.778;9.160;2024-03-17T16:23:33;7.50;;;2.35;;
140;SDS011;65;48.778;9.160;2024-03-17T16:26:25;6.53;;;2.42;;
140;SDS011;65;48.778;9.160;2024-03-17T16:29:12;6.28;;;2.15;;
140;SDS011;65;48.778;9.160;2024-03-17T16:32:01;5.40;;;2.30;;
140;SDS011;65;48.778;9.160;2024-03-17T16:34:48;4.15;;;2.05;;
140;SDS011;65;48.778;9.160;2024-03-17T16:37:34;4.15;;;2.28;;
140;SDS011;65;48.778;9.160;2024-03-17T16:40:20;5.80;;;2.30;;
140;SDS011;65;48.778;9.160;2024-03-17T16:43:06;4.28;;;2.22;;
140;SDS011;65;48.778;9.160;2024-03-17T16:45:58;4.38;;;1.95;;
140;SDS011;65;48.778;9.160;2024-03-17T16:49:02;3.13;;;2.00;;
140;SDS011;65;48.778;9.160;2024-03-17T16:51:51;5.47;;;2.47;;
140;SDS011;65;48.778;9.160;2024-03-17T16:54:38;5.03;;;1.92;;
140;SDS011;65;48.778;9.160;2024-03-17T16:57:23;2.80;;;1.75;;
140;SDS011;65;48.778;9.160;2024-03-17T17:00:09;4.50;;;2.10;;
140;SDS011;65;48.778;9.160;2024-03-17T17:03:02;3.33;;;2.10;;
140;SDS011;65;48.778;9.160;2024-03-17T17:05:49;3.53;;;2.00;;
140;SDS011;65;48.778;9.160;2024-03-17T17:08:35;4.85;;;2.28;;
140;SDS011;65;48.778;9.160;2024-03-17T17:11:21;4.45;;;2.20;;
140;SDS011;65;48.778;9.160;2024-03-17T17:14:07;3.80;;;2.35;;
140;SDS011;65;48.778;9.160;2024-03-17T17:16:55;5.30;;;2.15;;
140;SDS011;65;48.778;9.160;2024-03-17T17:19:42;3.80;;;2.08;;
140;SDS011;65;48.778;9.160;2024-03-17T17:22:28;4.97;;;2.10;;
140;SDS011;65;48.778;9.160;2024-03-17T17:25:14;4.18;;;2.30;;
140;SDS011;65;48.778;9.160;2024-03-17T17:28:04;3.40;;;2.03;;
140;SDS011;65;48.778;9.160;2024-03-17T17:30:50;4.47;;;2.42;;
140;SDS011;65;48.778;9.160;2024-03-17T17:33:37;3.88;;;2.00;;
140;SDS011;65;48.778;9.160;2024-03-17T17:36:24;3.13;;;2.10;;
140;SDS011;65;48.778;9.160;2024-03-17T17:39:10;5.03;;;2.38;;
140;SDS011;65;48.778;9.160;2024-03-17T17:42:01;4.13;;;2.35;;
140;SDS011;65;48.778;9.160;2024-03-17T17:44:50;4.40;;;2.10;;
140;SDS011;65;48.778;9.160;2024-03-17T17:47:41;4.25;;;2.33;;
140;SDS011;65;48.778;9.160;2024-03-17T17:50:28;3.85;;;2.20;;
140;SDS011;65;48.778;9.160;2024-03-17T17:53:13;5.65;;;2.72;;
140;SDS011;65;48.778;9.160;2024-03-17T17:56:08;4.07;;;2.28;;
140;SDS011;65;48.778;9.160;2024-03-17T17:58:59;5.93;;;2.25;;
140;SDS011;65;48.778;9.160;2024-03-17T18:01:44;4.60;;;2.63;;
140;SDS011;65;48.778;9.160;2024-03-17T18:04:31;4.07;;;2.25;;
140;SDS011;65;48.778;9.160;2024-03-17T18:07:17;4.13;;;2.60;;
140;SDS011;65;48.778;9.160;2024-03-17T18:10:03;4.63;;;2.25;;
140;SDS011;65;48.778;9.160;2024-03-17T18:12:49;6.35;;;2.33;;
140;SDS011;65;48.778;9.160;2024-03-17T18:15:35;4.05;;;1.92;;
140;SDS011;65;48.778;9.160;2024-03-17T18:18:21;3.88;;;2.45;;
140;SDS011;65;48.778;9.160;2024-03-17T18:21:08;5.03;;;2.40;;
140;SDS011;65;48.778;9.160;2024-03-17T18:23:55;3.78;;;2.10;;
140;SDS011;65;48.778;9.160;2024-03-17T18:26:41;6.15;;;2.78;;
140;SDS011;65;48.778;9.160;2024-03-17T18:29:27;4.47;;;2.67;;
140;SDS011;65;48.778;9.160;2024-03-17T18:32:13;5.65;;;2.80;;
140;SDS011;65;48.778;9.160;2024-03-17T18:34:59;5.22;;;2.42;;